createdAt,value
2023-07-25T00:02:03.723Z,23.66
2023-07-25T00:04:09.536Z,23.64
2023-07-25T00:06:17.909Z,23.60
2023-07-25T00:08:20.353Z,23.60
2023-07-25T00:10:25.311Z,23.58
2023-07-25T00:12:30.404Z,23.56
2023-07-25T00:14:36.214Z,23.53
2023-07-25T00:16:41.526Z,23.50
2023-07-25T00:18:46.443Z,23.48
2023-07-25T00:20:48.965Z,23.45
2023-07-25T00:22:56.622Z,23.42
2023-07-25T00:25:01.550Z,23.40
2023-07-25T00:27:06.749Z,23.39
2023-07-25T00:29:12.007Z,23.35
2023-07-25T00:31:16.899Z,23.33
2023-07-25T00:33:21.871Z,23.31
2023-07-25T00:35:26.825Z,23.29
2023-07-25T00:37:32.826Z,23.28
2023-07-25T00:39:40.331Z,23.26
2023-07-25T00:41:45.697Z,23.25
2023-07-25T00:43:50.837Z,23.25
2023-07-25T00:45:56.224Z,23.22
2023-07-25T00:48:01.391Z,23.22
2023-07-25T00:50:06.720Z,23.23
2023-07-25T00:52:12.264Z,23.24
2023-07-25T00:54:17.774Z,23.24
2023-07-25T00:56:25.671Z,23.23
2023-07-25T00:58:31.810Z,23.25
2023-07-25T01:00:36.735Z,23.25
2023-07-25T01:02:39.861Z,23.27
2023-07-25T01:04:45.964Z,23.27
2023-07-25T01:06:51.889Z,23.27
2023-07-25T01:08:58.338Z,23.28
2023-07-25T01:11:03.360Z,23.28
2023-07-25T01:13:10.946Z,23.29
2023-07-25T01:15:16.033Z,23.29
2023-07-25T01:17:24.687Z,23.28
2023-07-25T01:19:32.437Z,23.29
2023-07-25T01:21:37.352Z,23.29
2023-07-25T01:23:40.440Z,23.30
2023-07-25T01:25:52.690Z,23.28
2023-07-25T01:27:55.313Z,23.28
2023-07-25T01:30:00.377Z,23.28
2023-07-25T01:32:05.529Z,23.28
2023-07-25T01:34:10.500Z,23.27
2023-07-25T01:36:15.566Z,23.28
2023-07-25T01:38:20.997Z,23.27
2023-07-25T01:40:25.950Z,23.26
2023-07-25T01:42:33.781Z,23.24
2023-07-25T01:44:38.925Z,23.24
2023-07-25T01:46:44.913Z,23.22
2023-07-25T01:48:50.292Z,23.22
2023-07-25T01:50:55.332Z,23.21
2023-07-25T01:53:00.494Z,23.21
2023-07-25T01:55:05.628Z,23.17
2023-07-25T01:57:10.682Z,23.16
2023-07-25T01:59:18.252Z,23.15
2023-07-25T02:01:23.388Z,23.14
2023-07-25T02:03:26.008Z,23.12
2023-07-25T02:05:30.803Z,23.01
2023-07-25T02:07:36.616Z,23.01
2023-07-25T02:09:41.563Z,23.03
2023-07-25T02:11:46.556Z,23.01
2023-07-25T02:13:51.628Z,23.02
2023-07-25T02:15:59.296Z,22.99
2023-07-25T02:18:05.057Z,22.96
2023-07-25T02:20:11.657Z,22.94
2023-07-25T02:22:16.710Z,22.87
2023-07-25T02:24:21.647Z,22.82
2023-07-25T02:26:24.143Z,22.78
2023-07-25T02:28:29.070Z,22.74
2023-07-25T02:30:31.412Z,22.74
2023-07-25T02:32:39.033Z,22.72
2023-07-25T02:34:44.097Z,22.71
2023-07-25T02:36:49.077Z,22.71
2023-07-25T02:38:54.887Z,22.70
2023-07-25T02:41:00.102Z,22.71
2023-07-25T02:43:06.725Z,22.71
2023-07-25T02:45:12.613Z,22.73
2023-07-25T02:47:17.613Z,22.73
2023-07-25T02:49:25.153Z,22.72
2023-07-25T02:51:30.781Z,22.73
2023-07-25T02:53:35.970Z,22.72
2023-07-25T02:55:41.311Z,22.73
2023-07-25T02:57:46.326Z,22.72
2023-07-25T02:59:51.280Z,22.71
2023-07-25T03:01:56.534Z,22.71
2023-07-25T03:04:01.803Z,22.72
2023-07-25T03:06:09.434Z,22.71
2023-07-25T03:08:11.870Z,22.69
2023-07-25T03:10:16.979Z,22.60
2023-07-25T03:12:21.981Z,22.60
2023-07-25T03:14:26.906Z,22.62
2023-07-25T03:16:32.100Z,22.62
2023-07-25T03:18:37.146Z,22.61
2023-07-25T03:20:42.130Z,22.60
2023-07-25T03:22:49.853Z,22.59
2023-07-25T03:24:54.865Z,22.59
2023-07-25T03:26:59.892Z,22.57
2023-07-25T03:29:04.865Z,22.57
2023-07-25T03:31:10.921Z,22.55
2023-07-25T03:33:16.536Z,22.53
2023-07-25T03:35:18.865Z,22.52
2023-07-25T03:37:23.835Z,22.49
2023-07-25T03:39:31.700Z,22.48
2023-07-25T03:41:36.790Z,22.48
2023-07-25T03:43:41.900Z,22.48
2023-07-25T03:45:46.992Z,22.47
2023-07-25T03:47:52.005Z,22.47
2023-07-25T03:49:56.990Z,22.47
2023-07-25T03:52:01.950Z,22.48
2023-07-25T03:54:06.983Z,22.48
2023-07-25T03:56:14.527Z,22.47
2023-07-25T03:58:19.782Z,22.50
2023-07-25T04:00:25.680Z,22.52
2023-07-25T04:02:30.848Z,22.52
2023-07-25T04:04:35.888Z,22.53
2023-07-25T04:06:41.772Z,22.53
2023-07-25T04:08:46.840Z,22.54
2023-07-25T04:10:51.917Z,22.55
2023-07-25T04:12:59.535Z,22.55
2023-07-25T04:15:04.620Z,22.56
2023-07-25T04:17:09.569Z,22.58
2023-07-25T04:19:14.607Z,22.57
2023-07-25T04:21:19.967Z,22.58
2023-07-25T04:23:23.369Z,22.58
2023-07-25T04:25:28.280Z,22.58
2023-07-25T04:27:34.652Z,22.58
2023-07-25T04:29:42.338Z,22.58
2023-07-25T04:31:47.606Z,22.59
2023-07-25T04:33:52.508Z,22.58
2023-07-25T04:35:57.475Z,22.56
2023-07-25T04:38:02.349Z,22.55
2023-07-25T04:40:08.713Z,22.54
2023-07-25T04:42:13.617Z,22.52
2023-07-25T04:44:18.785Z,22.50
2023-07-25T04:46:26.396Z,22.47
2023-07-25T04:48:32.512Z,22.45
2023-07-25T04:50:37.482Z,22.42
2023-07-25T04:52:43.152Z,22.37
2023-07-25T04:54:48.159Z,22.35
2023-07-25T04:56:53.417Z,22.30
2023-07-25T04:58:58.558Z,22.28
2023-07-25T05:01:03.438Z,22.26
2023-07-25T05:03:11.095Z,22.23
2023-07-25T05:05:16.480Z,22.24
2023-07-25T05:07:21.600Z,22.23
2023-07-25T05:09:26.665Z,22.24
2023-07-25T05:11:31.861Z,22.24
2023-07-25T05:13:37.182Z,22.25
2023-07-25T05:15:42.059Z,22.25
2023-07-25T05:17:47.070Z,22.26
2023-07-25T05:19:54.556Z,22.24
2023-07-25T05:21:59.854Z,22.23
2023-07-25T05:24:05.663Z,22.23
2023-07-25T05:26:10.546Z,22.23
2023-07-25T05:28:15.355Z,22.23
2023-07-25T05:30:20.375Z,22.22
2023-07-25T05:32:25.884Z,22.22
2023-07-25T05:34:30.792Z,22.23
2023-07-25T05:36:38.445Z,22.23
2023-07-25T05:38:43.673Z,22.24
2023-07-25T05:40:51.314Z,22.25
2023-07-25T05:42:57.086Z,22.25
2023-07-25T05:45:02.758Z,22.25
2023-07-25T05:47:08.428Z,22.27
2023-07-25T05:49:13.404Z,22.28
2023-07-25T05:51:15.672Z,22.28
2023-07-25T05:53:23.345Z,22.27
2023-07-25T05:55:28.197Z,22.28
2023-07-25T05:57:33.122Z,22.28
2023-07-25T05:59:38.128Z,22.28
2023-07-25T06:01:43.383Z,22.27
2023-07-25T06:03:48.422Z,22.26
2023-07-25T06:05:55.809Z,22.24
2023-07-25T12:02:12.203Z,22.56
2023-07-25T12:04:18.930Z,22.67
2023-07-25T12:06:28.508Z,22.75
2023-07-25T12:08:35.328Z,22.80
2023-07-25T12:10:41.552Z,22.87
2023-07-25T12:12:49.922Z,22.87
2023-07-25T12:14:59.599Z,22.92
2023-07-25T12:17:07.242Z,22.94
2023-07-25T12:19:17.021Z,22.94
2023-07-25T12:21:24.304Z,22.93
2023-07-25T12:23:32.962Z,22.94
2023-07-25T12:25:40.374Z,22.93
2023-07-25T12:27:48.888Z,22.94
2023-07-25T12:29:54.058Z,22.94
2023-07-25T12:31:59.279Z,22.96
2023-07-25T12:34:04.231Z,22.97
2023-07-25T12:36:11.943Z,22.95
2023-07-25T12:38:14.312Z,22.97
2023-07-25T12:40:19.385Z,22.99
2023-07-25T12:42:21.780Z,23.01
2023-07-25T12:44:26.684Z,23.04
2023-07-25T12:46:31.897Z,23.07
2023-07-25T12:48:34.853Z,23.08
2023-07-25T12:50:40.537Z,23.09
2023-07-25T12:52:48.160Z,23.12
2023-07-25T12:54:53.132Z,23.15
2023-07-25T12:56:58.026Z,23.14
2023-07-25T12:59:03.363Z,23.18
2023-07-25T13:01:08.746Z,23.18
2023-07-25T13:03:14.066Z,23.18
2023-07-25T13:05:19.146Z,23.20
2023-07-25T13:07:24.175Z,23.23
2023-07-25T13:09:31.666Z,23.24
2023-07-25T13:11:36.854Z,23.27
2023-07-25T13:13:41.968Z,23.29
2023-07-25T13:15:47.059Z,23.30
2023-07-25T13:17:52.122Z,23.29
2023-07-25T13:19:57.167Z,23.30
2023-07-25T13:22:02.185Z,23.28
2023-07-25T13:24:07.438Z,23.28
2023-07-25T13:26:15.113Z,23.26
2023-07-25T13:28:20.474Z,23.27
2023-07-25T13:30:25.838Z,23.24
2023-07-25T13:32:32.121Z,23.20
2023-07-25T13:34:37.113Z,23.18
2023-07-25T13:36:42.342Z,23.16
2023-07-25T13:38:47.313Z,23.15
2023-07-25T13:40:54.306Z,23.14
2023-07-25T13:43:01.916Z,23.13
2023-07-25T13:45:07.663Z,23.13
2023-07-25T13:47:12.562Z,23.10
2023-07-25T13:49:17.741Z,23.10
2023-07-25T13:51:22.784Z,23.11
2023-07-25T13:53:27.754Z,23.12
2023-07-25T13:55:32.850Z,23.12
2023-07-25T13:57:38.856Z,23.14
2023-07-25T13:59:46.493Z,23.16
2023-07-25T14:01:48.992Z,23.18
2023-07-25T14:03:54.805Z,23.18
2023-07-25T14:05:59.974Z,23.20
2023-07-25T14:08:08.650Z,23.21
2023-07-25T14:10:20.121Z,23.21
2023-07-25T14:12:25.213Z,23.24
2023-07-25T14:14:30.340Z,23.25
2023-07-25T14:16:37.880Z,23.25
2023-07-25T14:18:42.842Z,23.27
2023-07-25T14:20:48.755Z,23.31
2023-07-25T14:22:59.836Z,23.33
2023-07-25T14:25:10.877Z,23.33
2023-07-25T14:27:17.724Z,23.31
2023-07-25T14:29:23.823Z,23.34
2023-07-25T14:31:29.514Z,23.44
2023-07-25T14:33:37.167Z,23.36
2023-07-25T14:35:42.893Z,23.43
2023-07-25T14:37:59.709Z,23.41
2023-07-25T14:40:24.743Z,23.39
2023-07-25T14:42:30.246Z,23.43
2023-07-25T14:44:42.375Z,23.44
2023-07-25T14:47:07.761Z,23.44
2023-07-25T14:49:22.669Z,23.44
2023-07-25T14:51:36.814Z,23.43
2023-07-25T14:53:42.034Z,23.47
2023-07-25T14:55:54.208Z,23.41
2023-07-25T14:58:02.157Z,23.42
2023-07-25T15:00:12.652Z,23.39
2023-07-25T15:02:18.901Z,23.43
2023-07-25T15:04:32.338Z,23.33
2023-07-25T15:06:42.662Z,23.40
2023-07-25T15:08:48.348Z,23.39
2023-07-25T15:11:09.791Z,23.39
2023-07-25T15:13:18.189Z,23.39
2023-07-25T15:15:34.005Z,23.40
2023-07-25T15:17:39.456Z,23.43
2023-07-25T15:19:55.129Z,23.43
2023-07-25T15:22:09.845Z,23.40
2023-07-25T15:24:17.495Z,23.45
2023-07-25T15:26:55.784Z,23.47
2023-07-25T15:29:07.305Z,23.48
2023-07-25T15:31:17.791Z,23.49
2023-07-25T15:33:24.042Z,23.56
2023-07-25T15:35:32.038Z,23.57
2023-07-25T15:37:38.893Z,23.57
2023-07-25T15:39:46.628Z,23.57
2023-07-25T15:41:51.805Z,23.57
2023-07-25T15:43:56.796Z,23.52
2023-07-25T15:46:01.931Z,23.53
2023-07-25T15:48:07.859Z,23.50
2023-07-25T15:50:21.394Z,23.43
2023-07-25T15:52:32.043Z,23.41
2023-07-25T15:54:53.424Z,23.33
2023-07-25T15:57:13.990Z,23.34
2023-07-25T15:59:19.404Z,23.33
2023-07-25T16:01:24.715Z,23.30
2023-07-25T16:03:29.909Z,23.25
2023-07-25T16:05:35.147Z,23.15
2023-07-25T16:07:43.026Z,23.10
2023-07-25T16:12:32.603Z,22.98
2023-07-25T16:14:38.391Z,22.89
2023-07-25T16:16:58.789Z,22.91
2023-07-25T16:19:04.256Z,22.87
2023-07-25T16:21:21.292Z,22.79
2023-07-25T16:23:35.633Z,22.77
2023-07-25T16:25:49.636Z,22.72
2023-07-25T16:28:01.703Z,22.67
2023-07-25T16:30:26.601Z,22.65
2023-07-25T16:32:45.296Z,22.66
2023-07-25T16:34:54.326Z,22.67
2023-07-25T16:37:14.248Z,22.58
2023-07-25T16:39:28.848Z,22.62
2023-07-25T16:41:34.319Z,22.60
2023-07-25T16:43:37.038Z,22.58
2023-07-25T16:45:42.163Z,22.52
2023-07-25T16:47:52.344Z,22.41
2023-07-25T16:50:31.619Z,22.34
2023-07-25T16:52:39.642Z,22.29
2023-07-25T16:54:53.344Z,22.31
2023-07-25T16:56:59.084Z,22.27
2023-07-25T16:59:08.529Z,22.26
2023-07-25T17:01:14.325Z,22.27
2023-07-25T17:03:24.873Z,22.23
2023-07-25T17:05:42.865Z,22.19
2023-07-25T17:07:55.873Z,22.12
2023-07-25T17:10:20.136Z,22.09
2023-07-25T17:12:34.484Z,22.16
2023-07-25T17:14:39.550Z,22.13
2023-07-25T17:16:47.600Z,22.18
2023-07-25T17:19:02.572Z,22.13
2023-07-25T17:21:11.398Z,22.11
2023-07-25T17:23:22.578Z,22.14
2023-07-25T17:25:38.888Z,22.04
2023-07-25T17:27:52.099Z,22.06
2023-07-25T17:29:58.581Z,22.08
2023-07-25T17:32:14.928Z,22.03
2023-07-25T17:34:37.819Z,21.94
2023-07-25T17:36:51.590Z,21.92
2023-07-25T17:39:08.089Z,21.91
2023-07-25T17:41:21.799Z,21.87
2023-07-25T17:43:37.624Z,21.85
2023-07-25T17:45:51.287Z,21.87
2023-07-25T17:47:58.646Z,21.79
2023-07-25T17:50:04.301Z,21.74
2023-07-25T17:52:21.994Z,21.69
2023-07-25T17:54:31.084Z,21.60
2023-07-25T17:56:43.936Z,21.58
2023-07-25T17:58:52.785Z,21.51
2023-07-25T18:01:15.049Z,21.50
2023-07-25T18:03:25.642Z,21.44
2023-07-25T18:05:34.369Z,21.43
2023-07-25T18:07:41.656Z,21.47
2023-07-25T18:09:47.359Z,21.45
2023-07-25T18:11:56.556Z,21.43
2023-07-25T18:14:10.064Z,21.40
2023-07-25T18:16:20.779Z,21.34
2023-07-25T18:18:28.503Z,21.32
2023-07-25T18:20:33.782Z,21.35
2023-07-25T18:22:45.955Z,21.38
2023-07-25T18:24:53.120Z,21.36
2023-07-25T18:27:01.223Z,21.36
2023-07-25T18:29:11.508Z,21.37
2023-07-25T18:31:27.415Z,21.37
2023-07-25T18:33:32.579Z,21.36
2023-07-25T18:35:44.935Z,21.36
2023-07-25T18:37:57.562Z,21.30
2023-07-25T18:40:04.065Z,21.31
2023-07-25T18:42:14.398Z,21.32
2023-07-25T18:44:25.313Z,21.25
2023-07-25T18:46:39.578Z,21.28
2023-07-25T18:48:47.912Z,21.21
2023-07-25T18:50:58.843Z,21.20
2023-07-25T18:53:07.645Z,21.24
2023-07-25T18:55:13.354Z,21.23
2023-07-25T18:57:27.196Z,21.23
2023-07-25T18:59:40.807Z,21.21
2023-07-25T19:01:47.369Z,21.16
2023-07-25T19:03:53.013Z,21.17
2023-07-25T19:06:00.045Z,21.10
2023-07-25T19:08:05.954Z,21.16
2023-07-25T19:10:17.048Z,21.10
2023-07-25T19:12:31.852Z,21.14
2023-07-25T19:14:42.213Z,21.14
2023-07-25T19:16:51.566Z,21.13
2023-07-25T19:19:02.353Z,21.12
2023-07-25T19:21:12.390Z,21.11
2023-07-25T19:23:25.928Z,21.07
2023-07-25T19:25:40.339Z,21.01
2023-07-25T19:27:51.980Z,20.96
2023-07-25T19:30:03.278Z,20.93
2023-07-25T19:32:19.448Z,20.97
2023-07-25T19:34:25.124Z,20.97
2023-07-25T19:36:40.396Z,20.96
2023-07-25T19:38:47.933Z,20.92
2023-07-25T19:41:00.608Z,20.95
2023-07-25T19:43:10.623Z,20.93
2023-07-25T19:45:16.821Z,20.92
2023-07-25T19:47:24.981Z,20.87
2023-07-25T19:49:33.035Z,20.77
2023-07-25T19:51:53.059Z,20.77
2023-07-25T19:53:59.156Z,20.76
2023-07-25T19:56:07.718Z,20.75
2023-07-25T19:58:15.378Z,20.74
2023-07-25T20:00:26.748Z,20.73
2023-07-25T20:02:32.956Z,20.69
2023-07-25T20:04:50.120Z,20.67
2023-07-25T20:06:52.407Z,20.64
2023-07-25T20:09:06.795Z,20.64
2023-07-25T20:11:16.963Z,20.60
2023-07-25T20:13:34.179Z,20.65
2023-07-25T20:15:39.236Z,20.67
2023-07-25T20:17:45.311Z,20.67
2023-07-25T20:19:50.305Z,20.65
2023-07-25T20:21:56.804Z,20.62
2023-07-25T20:24:10.500Z,20.60
2023-07-25T20:26:17.265Z,20.55
2023-07-25T20:28:22.839Z,20.56
2023-07-25T20:30:55.701Z,20.52
2023-07-25T20:33:08.209Z,20.48
2023-07-25T20:35:16.590Z,20.44
2023-07-25T20:37:22.775Z,20.47
2023-07-25T20:39:42.134Z,20.46
2023-07-25T20:41:47.675Z,20.43
2023-07-25T20:43:50.035Z,20.42
2023-07-25T20:45:55.125Z,20.39
2023-07-25T20:48:02.818Z,20.32
2023-07-25T20:50:09.565Z,20.35
2023-07-25T20:52:14.570Z,20.34
2023-07-25T20:54:19.602Z,20.35
2023-07-25T20:56:24.651Z,20.33
2023-07-25T20:58:27.101Z,20.30
2023-07-25T21:00:32.286Z,20.26
2023-07-25T21:02:37.546Z,20.25
2023-07-25T21:04:45.139Z,20.23
2023-07-25T21:06:50.063Z,20.25
2023-07-25T21:08:54.964Z,20.26
2023-07-25T21:10:58.571Z,20.27
2023-07-25T21:13:03.540Z,20.28
2023-07-25T21:15:11.518Z,20.27
2023-07-25T21:17:16.422Z,20.28
2023-07-25T21:19:21.423Z,20.30
2023-07-25T21:21:29.053Z,20.31
2023-07-25T21:23:34.095Z,20.33
2023-07-25T21:25:40.244Z,20.32
2023-07-25T21:27:45.160Z,20.36
2023-07-25T21:29:50.672Z,20.37
2023-07-25T21:31:55.972Z,20.42
2023-07-25T21:34:02.664Z,20.44
2023-07-25T21:36:16.455Z,20.46
2023-07-25T21:38:24.079Z,20.49
2023-07-25T21:40:29.309Z,20.51
2023-07-25T21:42:34.294Z,20.53
2023-07-25T21:44:39.394Z,20.55
2023-07-25T21:46:41.968Z,20.57
2023-07-25T21:48:47.247Z,20.59
2023-07-25T21:50:52.172Z,20.59
2023-07-25T21:52:57.138Z,20.60
2023-07-25T21:55:04.636Z,20.61
2023-07-25T21:57:10.023Z,20.63
2023-07-25T21:59:15.776Z,20.64
2023-07-25T22:01:21.704Z,20.65
2023-07-25T22:03:26.760Z,20.65
2023-07-25T22:05:29.320Z,20.65
2023-07-25T22:07:34.220Z,20.66
2023-07-25T22:09:39.831Z,20.67
2023-07-25T22:11:47.557Z,20.65
2023-07-25T22:13:49.935Z,20.65
2023-07-25T22:15:54.984Z,20.64
2023-07-25T22:18:00.080Z,20.65
2023-07-25T22:20:02.610Z,20.65
2023-07-25T22:22:08.207Z,20.64
2023-07-25T22:24:13.256Z,20.63
2023-07-25T22:26:18.421Z,20.63
2023-07-25T22:28:26.014Z,20.63
2023-07-25T22:30:31.186Z,20.62
2023-07-25T22:32:36.561Z,20.61
2023-07-25T22:34:42.197Z,20.60
2023-07-25T22:36:47.088Z,20.60
2023-07-25T22:38:52.808Z,20.58
2023-07-25T22:40:57.753Z,20.60
2023-07-25T22:43:02.734Z,20.59
2023-07-25T22:45:11.214Z,20.58
2023-07-25T22:47:16.141Z,20.57
2023-07-25T22:49:21.060Z,20.56
2023-07-25T22:51:26.253Z,20.56
2023-07-25T22:53:31.166Z,20.56
2023-07-25T22:55:36.576Z,20.55
2023-07-25T22:57:41.444Z,20.54
2023-07-25T22:59:46.398Z,20.52
2023-07-25T23:01:54.468Z,20.48
2023-07-25T23:03:59.618Z,20.49
2023-07-25T23:06:04.576Z,20.49
2023-07-25T23:08:10.258Z,20.49
2023-07-25T23:10:16.153Z,20.45
2023-07-25T23:12:21.090Z,20.46
2023-07-25T23:14:25.993Z,20.45
2023-07-25T23:16:31.354Z,20.44
2023-07-25T23:18:39.126Z,20.43
2023-07-25T23:20:44.137Z,20.42
2023-07-25T23:22:48.985Z,20.43
2023-07-25T23:24:51.784Z,20.42
2023-07-25T23:26:56.477Z,20.30
2023-07-25T23:29:01.710Z,20.32
2023-07-25T23:31:06.660Z,20.33
2023-07-25T23:33:11.710Z,20.32
2023-07-25T23:35:19.296Z,20.32
2023-07-25T23:37:24.534Z,20.32
2023-07-25T23:39:29.449Z,20.32
2023-07-25T23:41:34.580Z,20.30
2023-07-25T23:43:39.364Z,20.28
2023-07-25T23:45:44.267Z,20.27
2023-07-25T23:47:49.116Z,20.25
2023-07-25T23:49:51.451Z,20.23
2023-07-25T23:51:58.953Z,20.20
2023-07-25T23:54:03.883Z,20.20
2023-07-25T23:56:09.205Z,20.18
2023-07-25T23:58:14.019Z,20.17
